createdAt,value
2023-05-07T00:01:57.242Z,8.30
2023-05-07T00:07:22.546Z,7.60
2023-05-07T00:12:47.429Z,8.50
2023-05-07T00:18:11.652Z,7.70
2023-05-07T00:23:35.504Z,7.40
2023-05-07T00:28:59.937Z,8.40
2023-05-07T00:34:23.968Z,6.40
2023-05-07T00:39:49.337Z,6.30
2023-05-07T00:45:14.954Z,6.30
2023-05-07T00:50:39.125Z,7.30
2023-05-07T00:56:03.859Z,7.10
2023-05-07T01:01:28.354Z,7.40
2023-05-07T01:06:55.812Z,6.90
2023-05-07T01:12:22.028Z,7.10
2023-05-07T01:17:47.097Z,6.80
2023-05-07T01:23:19.579Z,8.00
2023-05-07T01:28:44.055Z,7.10
2023-05-07T01:34:09.822Z,5.80
2023-05-07T01:39:34.889Z,7.40
2023-05-07T01:45:00.201Z,5.60
2023-05-07T01:50:25.248Z,5.50
2023-05-07T01:55:49.500Z,5.20
2023-05-07T02:01:15.204Z,5.30
2023-05-07T02:06:39.846Z,5.30
2023-05-07T02:12:06.682Z,7.20
2023-05-07T02:17:33.200Z,5.00
2023-05-07T02:22:58.581Z,5.20
2023-05-07T02:28:24.035Z,4.90
2023-05-07T02:33:55.221Z,4.90
2023-05-07T02:39:19.563Z,5.90
2023-05-07T02:44:44.192Z,5.50
2023-05-07T02:50:10.677Z,5.20
2023-05-07T02:55:35.339Z,5.40
2023-05-07T03:01:00.556Z,5.50
2023-05-07T03:06:29.817Z,5.30
2023-05-07T03:11:53.911Z,5.30
2023-05-07T03:17:18.360Z,6.60
2023-05-07T03:22:42.827Z,7.60
2023-05-07T03:28:07.745Z,7.90
2023-05-07T03:33:52.221Z,7.90
2023-05-07T03:39:20.380Z,9.00
2023-05-07T03:44:45.411Z,8.40
2023-05-07T03:50:10.702Z,8.00
2023-05-07T03:55:35.718Z,8.10
2023-05-07T04:01:00.523Z,7.10
2023-05-07T04:06:24.682Z,7.50
2023-05-07T04:11:49.136Z,7.30
2023-05-07T04:17:13.954Z,8.90
2023-05-07T04:22:38.387Z,8.50
2023-05-07T04:28:03.596Z,9.10
2023-05-07T04:33:28.748Z,8.20
2023-05-07T04:38:53.816Z,8.80
2023-05-07T04:44:18.214Z,8.10
2023-05-07T04:49:43.119Z,8.20
2023-05-07T04:55:10.084Z,9.30
2023-05-07T05:00:36.940Z,10.10
2023-05-07T05:06:03.075Z,8.70
2023-05-07T05:11:30.389Z,8.40
2023-05-07T05:16:54.849Z,8.40
2023-05-07T05:22:19.136Z,7.90
2023-05-07T05:27:43.540Z,7.90
2023-05-07T05:33:09.000Z,7.40
2023-05-07T05:38:33.880Z,7.70
2023-05-07T05:43:58.763Z,8.60
2023-05-07T05:49:24.329Z,7.70
2023-05-07T05:54:49.123Z,8.10
2023-05-07T06:00:14.984Z,8.60
2023-05-07T06:05:45.279Z,7.20
2023-05-07T06:11:09.923Z,7.50
2023-05-07T06:16:35.316Z,6.90
2023-05-07T06:22:02.780Z,6.80
2023-05-07T06:27:27.338Z,6.30
2023-05-07T06:32:52.471Z,5.90
2023-05-07T06:38:17.623Z,6.30
2023-05-07T06:43:42.699Z,4.90
2023-05-07T06:49:30.628Z,3.90
2023-05-07T06:54:54.845Z,3.70
2023-05-07T07:00:20.814Z,3.20
2023-05-07T07:05:49.032Z,3.20
2023-05-07T07:11:14.394Z,3.60
2023-05-07T07:16:39.538Z,3.80
2023-05-07T07:22:03.450Z,4.00
2023-05-07T07:27:28.061Z,3.50
2023-05-07T07:32:57.166Z,3.20
2023-05-07T07:38:24.505Z,3.20
2023-05-07T07:43:50.164Z,2.80
2023-05-07T07:49:17.132Z,2.50
2023-05-07T07:54:41.967Z,2.90
2023-05-07T08:00:08.533Z,2.80
2023-05-07T08:05:40.673Z,2.60
2023-05-07T08:11:05.780Z,2.90
2023-05-07T08:16:31.246Z,3.10
2023-05-07T08:21:56.927Z,3.60
2023-05-07T08:27:21.483Z,3.80
2023-05-07T08:32:45.757Z,4.00
2023-05-07T08:38:10.738Z,3.30
2023-05-07T08:43:39.280Z,3.60
2023-05-07T08:49:04.255Z,4.20
2023-05-07T08:54:30.622Z,4.00
2023-05-07T08:59:55.851Z,4.40
2023-05-07T09:05:21.616Z,4.70
2023-05-07T09:10:46.021Z,4.20
2023-05-07T09:16:14.965Z,3.60
2023-05-07T09:21:41.253Z,4.10
2023-05-07T09:27:07.290Z,3.30
2023-05-07T09:32:36.209Z,3.80
2023-05-07T09:38:04.450Z,3.80
2023-05-07T09:43:36.835Z,4.00
2023-05-07T09:49:03.854Z,3.80
2023-05-07T09:54:32.040Z,4.20
2023-05-07T09:59:59.597Z,4.50
2023-05-07T10:05:25.950Z,4.50
2023-05-07T10:10:51.220Z,3.80
2023-05-07T10:16:19.755Z,5.50
2023-05-07T10:21:58.367Z,5.90
2023-05-07T10:27:25.066Z,5.20
2023-05-07T10:32:55.382Z,6.20
2023-05-07T10:38:26.636Z,4.80
2023-05-07T10:43:52.192Z,4.50
2023-05-07T10:49:27.617Z,5.00
2023-05-07T10:55:21.375Z,5.10
2023-05-07T11:01:14.171Z,4.30
2023-05-07T11:06:39.497Z,4.60
2023-05-07T11:12:06.824Z,4.60
2023-05-07T11:18:01.221Z,5.30
2023-05-07T11:23:35.666Z,4.90
2023-05-07T11:29:23.481Z,4.70
2023-05-07T11:34:56.994Z,5.80
2023-05-07T11:40:22.688Z,6.10
2023-05-07T11:45:49.364Z,7.20
2023-05-07T11:51:14.591Z,5.60
2023-05-07T11:56:41.184Z,5.70
2023-05-07T12:02:06.036Z,4.10
2023-05-07T12:07:31.253Z,4.80
2023-05-07T12:12:56.850Z,4.50
2023-05-07T12:18:21.559Z,5.40
2023-05-07T12:23:46.936Z,4.70
2023-05-07T12:29:11.668Z,5.80
2023-05-07T12:34:35.682Z,5.50
2023-05-07T12:40:12.618Z,5.80
2023-05-07T12:45:40.998Z,4.90
2023-05-07T12:51:07.604Z,6.50
2023-05-07T12:56:37.971Z,6.20
2023-05-07T13:02:02.777Z,4.30
2023-05-07T13:07:30.687Z,4.10
2023-05-07T13:12:57.784Z,3.60
2023-05-07T13:18:22.918Z,3.20
2023-05-07T13:23:47.587Z,2.40
2023-05-07T13:29:11.784Z,2.70
2023-05-07T13:34:36.433Z,3.20
2023-05-07T13:40:02.916Z,2.70
2023-05-07T13:45:32.785Z,3.00
2023-05-07T13:50:58.403Z,3.00
2023-05-07T13:56:22.705Z,2.70
2023-05-07T14:01:47.144Z,2.10
2023-05-07T14:07:11.530Z,2.30
2023-05-07T14:12:36.700Z,2.40
2023-05-07T14:18:02.186Z,2.40
2023-05-07T14:23:28.195Z,2.70
2023-05-07T14:28:52.128Z,3.20
2023-05-07T14:34:16.595Z,3.40
2023-05-07T14:39:41.066Z,3.90
2023-05-07T14:45:06.887Z,4.30
2023-05-07T14:50:31.401Z,3.90
2023-05-07T14:55:56.754Z,4.20
2023-05-07T15:01:22.825Z,3.80
2023-05-07T15:06:47.871Z,3.90
2023-05-07T15:12:13.015Z,4.50
2023-05-07T15:17:37.357Z,4.40
2023-05-07T15:23:03.785Z,4.50
2023-05-07T15:28:29.647Z,6.00
2023-05-07T15:33:55.645Z,3.70
2023-05-07T15:39:20.625Z,4.10
2023-05-07T15:44:47.793Z,4.40
2023-05-07T15:50:16.236Z,3.40
2023-05-07T15:55:45.556Z,4.10
2023-05-07T16:01:11.680Z,3.70
2023-05-07T16:06:37.138Z,4.00
2023-05-07T16:12:02.379Z,3.40
2023-05-07T16:17:27.187Z,3.60
2023-05-07T16:22:55.519Z,3.60
2023-05-07T16:28:21.893Z,3.50
2023-05-07T16:33:57.160Z,4.00
2023-05-07T16:39:22.843Z,4.00
2023-05-07T16:44:49.058Z,3.70
2023-05-07T16:50:13.632Z,4.10
2023-05-07T16:55:41.187Z,3.90
2023-05-07T17:01:11.902Z,4.50
2023-05-07T17:06:37.454Z,3.80
2023-05-07T17:12:03.171Z,4.60
2023-05-07T17:17:30.946Z,3.80
2023-05-07T17:22:58.900Z,4.90
2023-05-07T17:28:24.379Z,3.90
2023-05-07T17:33:48.827Z,4.00
2023-05-07T17:39:13.737Z,3.60
2023-05-07T17:44:38.179Z,4.30
2023-05-07T17:50:03.300Z,3.40
2023-05-07T17:55:29.724Z,3.30
2023-05-07T18:00:55.936Z,4.40
2023-05-07T18:06:23.042Z,4.30
2023-05-07T18:11:48.201Z,3.90
2023-05-07T18:17:12.739Z,4.20
2023-05-07T18:22:39.582Z,4.10
2023-05-07T18:28:03.732Z,3.60
2023-05-07T18:33:28.045Z,4.30
2023-05-07T18:38:53.964Z,4.30
2023-05-07T18:44:18.934Z,3.90
2023-05-07T18:50:15.792Z,3.80
2023-05-07T18:56:13.355Z,3.80
2023-05-07T19:01:38.131Z,4.00
2023-05-07T19:07:02.475Z,4.30
2023-05-07T19:12:27.113Z,4.30
2023-05-07T19:17:52.182Z,3.80
2023-05-07T19:23:17.170Z,4.20
2023-05-07T19:28:45.472Z,3.40
2023-05-07T19:34:10.380Z,3.40
2023-05-07T19:39:35.472Z,2.80
2023-05-07T19:45:00.404Z,3.50
2023-05-07T19:50:26.237Z,3.80
2023-05-07T19:55:53.258Z,3.30
2023-05-07T20:01:22.115Z,3.00
2023-05-07T20:06:47.251Z,3.90
2023-05-07T20:12:13.724Z,3.10
2023-05-07T20:17:38.532Z,3.90
2023-05-07T20:23:03.308Z,3.60
2023-05-07T20:28:27.779Z,3.80
2023-05-07T20:33:51.895Z,4.20
2023-05-07T20:39:16.550Z,4.10
2023-05-07T20:44:40.739Z,4.10
2023-05-07T20:50:05.146Z,4.20
2023-05-07T20:55:30.719Z,4.30
2023-05-07T21:00:56.107Z,3.90
2023-05-07T21:06:21.084Z,3.90
2023-05-07T21:11:45.516Z,3.90
2023-05-07T21:17:10.490Z,4.10
2023-05-07T21:22:35.984Z,4.00
2023-05-07T21:28:00.382Z,4.00
2023-05-07T21:33:24.462Z,4.80
2023-05-07T21:38:48.364Z,4.10
2023-05-07T21:44:12.313Z,3.40
2023-05-07T21:49:37.446Z,4.00
2023-05-07T21:55:02.717Z,4.40
2023-05-07T22:00:27.480Z,5.00
2023-05-07T22:05:51.749Z,4.30
2023-05-07T22:11:15.844Z,5.00
2023-05-07T22:16:40.402Z,4.50
2023-05-07T22:22:04.780Z,3.90
2023-05-07T22:27:31.622Z,4.70
2023-05-07T22:32:56.419Z,5.30
2023-05-07T22:38:20.641Z,5.30
2023-05-07T22:43:44.765Z,4.80
2023-05-07T22:49:09.067Z,4.90
2023-05-07T22:54:33.766Z,4.20
2023-05-07T22:59:58.547Z,3.60
2023-05-07T23:05:23.795Z,3.40
2023-05-07T23:10:48.833Z,2.90
2023-05-07T23:16:12.969Z,3.00
2023-05-07T23:21:37.333Z,3.70
2023-05-07T23:27:04.964Z,3.40
2023-05-07T23:32:31.371Z,3.70
2023-05-07T23:37:56.484Z,3.70
2023-05-07T23:43:21.524Z,3.20
2023-05-07T23:48:45.448Z,3.90
2023-05-07T23:54:09.613Z,4.00
2023-05-07T23:59:34.922Z,4.70
